.
WxDataArchive / Data Records for 2006-01-28
2006-01-27 January 2006 2006-01-29

Data Records for Saturday, 28 January 2006

Time	Temp	Chill	HIndex	Humid	Dewpt	 Wind 	HiWind	WindDir	Rain 	Barom 
-----	----	-----	------	-----	-----	------	------	-------	-----	----- 
00:00	43.6	43.6	43.6	56	29.0	3	8	248	0.00	30.221 
00:05	43.8	41.7	43.8	54	28.3	4	12	248	0.00	30.221 
00:10	43.9	41.8	43.9	54	28.3	4	10	248	0.00	30.221 
00:15	43.9	41.8	43.9	53	27.9	4	13	248	0.00	30.217 
00:20	43.9	41.8	43.9	53	27.9	4	10	248	0.00	30.217 
00:25	44.1	42.1	44.1	53	28.1	4	10	248	0.00	30.217 
00:30	44.1	42.1	44.1	53	28.1	4	10	248	0.00	30.218 
00:35	44.1	41.3	44.1	52	27.6	5	10	248	0.00	30.218 
00:40	44.1	42.1	44.1	52	27.6	4	9	248	0.00	30.218 
00:45	44.1	42.1	44.1	52	27.6	4	11	248	0.00	30.217 
00:50	44.3	41.5	44.3	51	27.3	5	11	248	0.00	30.217 
00:55	44.5	42.5	44.5	51	27.5	4	9	248	0.00	30.217 
01:00	44.5	42.5	44.5	51	27.5	4	10	248	0.00	30.220 
01:05	44.5	41.8	44.5	51	27.5	5	12	248	0.00	30.220 
01:10	44.5	42.5	44.5	51	27.5	4	12	270	0.00	30.220 
01:15	44.5	41.8	44.5	51	27.5	5	10	248	0.00	30.221 
01:20	44.3	44.3	44.3	51	27.3	3	11	248	0.00	30.221 
01:25	44.3	42.3	44.3	51	27.3	4	9	248	0.00	30.221 
01:30	44.3	44.3	44.3	52	27.8	3	13	248	0.00	30.228 
01:35	44.1	44.1	44.1	52	27.6	3	7	248	0.00	30.228 
01:40	44.1	44.1	44.1	52	27.6	3	6	248	0.00	30.228 
01:45	43.9	43.9	43.9	53	27.9	3	7	248	0.00	30.229 
01:50	43.8	43.8	43.8	53	27.8	2	6	248	0.00	30.229 
01:55	43.8	43.8	43.8	53	27.8	3	5	248	0.00	30.229 
02:00	43.8	43.8	43.8	54	28.3	2	4	248	0.00	30.229 
02:05	43.6	43.6	43.6	54	28.1	2	4	248	0.00	30.229 
02:10	43.5	43.5	43.5	54	28.0	2	3	248	0.00	30.229 
02:15	43.5	43.5	43.5	54	28.0	2	5	248	0.00	30.232 
02:20	43.3	43.3	43.3	54	27.8	1	4	248	0.00	30.232 
02:25	43.2	43.2	43.2	55	28.1	2	3	248	0.00	30.232 
02:30	43.1	43.1	43.1	55	28.0	1	3	248	0.00	30.234 
02:35	42.9	42.9	42.9	55	27.9	2	4	248	0.00	30.234 
02:40	42.9	42.9	42.9	55	27.9	2	4	248	0.00	30.234 
02:45	42.9	42.9	42.9	55	27.9	2	5	248	0.00	30.235 
02:50	42.9	42.9	42.9	55	27.9	2	6	248	0.00	30.235 
02:55	43.1	43.1	43.1	55	28.0	3	7	248	0.00	30.235 
03:00	43.2	43.2	43.2	55	28.1	3	8	248	0.00	30.234 
03:05	43.3	43.3	43.3	54	27.8	2	6	248	0.00	30.234 
03:10	43.5	43.5	43.5	54	28.0	3	7	248	0.00	30.234 
03:15	43.5	43.5	43.5	54	28.0	3	6	248	0.00	30.230 
03:20	43.6	41.5	43.6	54	28.1	4	10	248	0.00	30.230 
03:25	43.6	41.5	43.6	54	28.1	4	9	248	0.00	30.230 
03:30	43.6	43.6	43.6	54	28.1	3	9	248	0.00	30.230 
03:35	43.6	41.5	43.6	54	28.1	4	10	248	0.00	30.230 
03:40	43.6	41.5	43.6	54	28.1	4	7	248	0.00	30.230 
03:45	43.6	41.5	43.6	54	28.1	4	7	270	0.00	30.228 
03:50	43.6	41.5	43.6	54	28.1	4	10	248	0.00	30.228 
03:55	43.6	43.6	43.6	55	28.5	3	6	248	0.00	30.228 
04:00	43.5	43.5	43.5	55	28.4	3	6	248	0.00	30.232 
04:05	43.5	43.5	43.5	55	28.4	3	10	248	0.00	30.232 
04:10	43.5	43.5	43.5	55	28.4	3	9	248	0.00	30.232 
04:15	43.5	43.5	43.5	55	28.4	3	7	248	0.00	30.231 
04:20	43.5	43.5	43.5	55	28.4	3	6	248	0.00	30.231 
04:25	43.5	43.5	43.5	55	28.4	3	6	248	0.00	30.231 
04:30	43.5	43.5	43.5	55	28.4	2	5	248	0.00	30.230 
04:35	43.3	43.3	43.3	56	28.7	2	5	248	0.00	30.230 
04:40	43.3	43.3	43.3	55	28.2	2	5	248	0.00	30.230 
04:45	43.3	43.3	43.3	55	28.2	3	5	248	0.00	30.229 
04:50	43.3	43.3	43.3	55	28.2	3	7	248	0.00	30.229 
04:55	43.5	43.5	43.5	55	28.4	3	6	248	0.00	30.229 
05:00	43.5	43.5	43.5	55	28.4	3	8	248	0.00	30.229 
05:05	43.5	43.5	43.5	55	28.4	2	6	248	0.00	30.229 
05:10	43.3	43.3	43.3	56	28.7	2	4	248	0.00	30.229 
05:15	43.2	43.2	43.2	57	29.0	1	3	248	0.00	30.230 
05:20	43.1	43.1	43.1	57	28.9	1	3	248	0.00	30.230 
05:25	42.9	42.9	42.9	57	28.7	1	3	248	0.00	30.230 
05:30	42.9	42.9	42.9	58	29.2	2	4	248	0.00	30.229 
05:35	42.9	42.9	42.9	58	29.2	2	5	248	0.00	30.229 
05:40	42.8	42.8	42.8	58	29.1	2	4	248	0.00	30.229 
05:45	42.6	42.6	42.6	59	29.3	1	2	248	0.00	30.229 
05:50	42.2	42.2	42.2	59	28.9	1	3	248	0.00	30.229 
05:55	41.9	41.9	41.9	60	29.0	1	3	248	0.00	30.229 
06:00	41.6	41.6	41.6	61	29.2	1	3	248	0.00	30.222 
06:05	41.3	41.3	41.3	61	28.9	1	3	248	0.00	30.222 
06:10	41.1	41.1	41.1	62	29.1	1	3	248	0.00	30.222 
06:15	40.9	40.9	40.9	62	28.9	0	3	248	0.00	30.222 
06:20	40.6	40.6	40.6	63	29.0	0	1	248	0.00	30.222 
06:25	40.3	40.3	40.3	63	28.7	0	3	248	0.00	30.222 
06:30	40.2	40.2	40.2	64	29.0	0	2	248	0.00	30.222 
06:35	40.3	40.3	40.3	63	28.7	1	2	248	0.00	30.222 
06:40	40.6	40.6	40.6	63	29.0	1	3	248	0.00	30.222 
06:45	40.9	40.9	40.9	62	28.9	1	2	248	0.00	30.226 
06:50	40.9	40.9	40.9	63	29.3	0	2	248	0.00	30.226 
06:55	40.8	40.8	40.8	63	29.2	0	1	248	0.00	30.226 
07:00	40.6	40.6	40.6	64	29.4	0	1	248	0.00	30.223 
07:05	40.5	40.5	40.5	64	29.3	0	3	248	0.00	30.223 
07:10	40.6	40.6	40.6	63	29.0	1	4	248	0.00	30.223 
07:15	40.9	40.9	40.9	63	29.3	1	3	248	0.00	30.219 
07:20	40.9	40.9	40.9	63	29.3	0	2	248	0.00	30.219 
07:25	40.8	40.8	40.8	64	29.6	0	2	248	0.00	30.219 
07:30	40.6	40.6	40.6	64	29.4	0	2	248	0.00	30.215 
07:35	40.6	40.6	40.6	64	29.4	0	1	248	0.00	30.215 
07:40	40.5	40.5	40.5	65	29.7	0	1	248	0.00	30.215 
07:45	40.3	40.3	40.3	65	29.5	0	2	248	0.00	30.216 
07:50	40.3	40.3	40.3	65	29.5	0	3	248	0.00	30.216 
07:55	40.3	40.3	40.3	64	29.1	0	2	270	0.00	30.216 
08:00	40.5	40.5	40.5	64	29.3	1	4	248	0.00	30.215 
08:05	40.8	40.8	40.8	63	29.2	1	4	225	0.00	30.215 
08:10	41.1	41.1	41.1	63	29.5	2	4	248	0.00	30.215 
08:15	41.2	41.2	41.2	62	29.2	1	4	248	0.00	30.215 
08:20	41.2	41.2	41.2	63	29.6	0	2	248	0.00	30.215 
08:25	41.2	41.2	41.2	63	29.6	1	3	248	0.00	30.215 
08:30	41.3	41.3	41.3	63	29.7	1	3	248	0.00	30.215 
08:35	41.5	41.5	41.5	63	29.9	1	3	248	0.00	30.215 
08:40	41.6	41.6	41.6	63	30.0	1	3	248	0.00	30.215 
08:45	41.8	41.8	41.8	63	30.1	1	2	248	0.00	30.216 
08:50	41.9	41.9	41.9	62	29.8	0	2	225	0.00	30.216 
08:55	42.1	42.1	42.1	63	30.4	0	2	248	0.00	30.216 
09:00	42.2	42.2	42.2	62	30.1	1	2	248	0.00	30.215 
09:05	42.3	42.3	42.3	63	30.6	0	3	248	0.00	30.215 
09:10	42.5	42.5	42.5	62	30.4	1	3	248	0.00	30.215 
09:15	42.6	42.6	42.6	63	30.9	0	3	248	0.00	30.212 
09:20	42.9	42.9	42.9	62	30.8	1	2	248	0.00	30.212 
09:25	43.1	43.1	43.1	62	31.0	1	4	248	0.00	30.212 
09:30	43.2	43.2	43.2	62	31.1	1	3	248	0.00	30.208 
09:35	43.3	43.3	43.3	61	30.8	1	3	248	0.00	30.208 
09:40	43.6	43.6	43.6	62	31.5	1	2	248	0.00	30.208 
09:45	43.9	43.9	43.9	61	31.3	1	3	225	0.00	30.204 
09:50	44.1	44.1	44.1	62	31.9	1	3	202	0.00	30.204 
09:55	44.3	44.3	44.3	60	31.3	1	3	248	0.00	30.204 
10:00	44.6	44.6	44.6	60	31.6	1	6	248	0.00	30.203 
10:05	44.9	44.9	44.9	59	31.5	2	5	270	0.00	30.203 
10:10	45.2	45.2	45.2	59	31.7	2	4	248	0.00	30.203 
10:15	45.5	45.5	45.5	58	31.6	3	6	248	0.00	30.201 
10:20	46.1	46.1	46.1	58	32.2	2	6	248	0.00	30.201 
10:25	46.7	46.7	46.7	56	31.8	2	5	248	0.00	30.201 
10:30	46.8	46.8	46.8	56	31.9	3	7	248	0.00	30.195 
10:35	47.0	47.0	47.0	55	31.7	3	9	248	0.00	30.195 
10:40	47.0	47.0	47.0	54	31.2	3	9	248	0.00	30.195 
10:45	46.8	46.8	46.8	56	31.9	2	7	225	0.00	30.192 
10:50	47.0	47.0	47.0	55	31.7	3	7	248	0.00	30.192 
10:55	47.1	47.1	47.1	54	31.3	2	7	248	0.00	30.192 
11:00	47.3	47.3	47.3	54	31.5	3	7	248	0.00	30.186 
11:05	47.4	47.4	47.4	54	31.6	3	7	248	0.00	30.186 
11:10	47.4	45.9	47.4	55	32.1	4	12	248	0.00	30.186 
11:15	47.7	47.7	47.7	54	31.9	2	5	248	0.00	30.177 
11:20	48.5	48.5	48.5	54	32.6	3	10	248	0.00	30.177 
11:25	48.9	47.6	48.9	54	33.0	4	7	248	0.00	30.177 
11:30	49.2	49.2	49.2	53	32.8	3	6	248	0.00	30.178 
11:35	49.6	49.6	49.6	53	33.2	2	6	248	0.00	30.178 
11:40	50.1	50.1	50.1	50	32.2	5	11	248	0.00	30.178 
11:45	50.1	50.1	50.1	50	32.2	5	10	248	0.00	30.173 
11:50	50.4	50.4	50.4	50	32.5	3	6	248	0.00	30.173 
11:55	50.8	50.8	50.8	50	32.8	3	7	248	0.00	30.173 
12:00	51.0	51.0	51.0	49	32.5	3	6	248	0.00	30.162 
12:05	51.0	51.0	51.0	48	32.0	4	10	270	0.00	30.162 
12:10	51.0	51.0	51.0	50	33.0	2	5	248	0.00	30.162 
12:15	51.0	51.0	51.0	48	32.0	3	10	225	0.00	30.156 
12:20	51.0	51.0	51.0	50	33.0	3	5	270	0.00	30.156 
12:25	51.1	51.1	51.1	50	33.1	3	7	248	0.00	30.156 
12:30	51.3	51.3	51.3	49	32.8	3	10	248	0.00	30.144 
12:35	51.3	51.3	51.3	49	32.8	3	7	248	0.00	30.144 
12:40	51.3	51.3	51.3	50	33.3	4	9	248	0.00	30.144 
12:45	51.3	51.3	51.3	50	33.3	3	6	248	0.00	30.134 
12:50	51.4	51.4	51.4	48	32.4	3	9	248	0.00	30.134 
12:55	51.4	51.4	51.4	48	32.4	4	9	248	0.00	30.134 
13:00	51.4	51.4	51.4	49	32.9	3	6	248	0.00	30.128 
13:05	51.6	51.6	51.6	49	33.1	3	5	248	0.00	30.128 
13:10	51.9	51.9	51.9	49	33.3	3	9	248	0.00	30.128 
13:15	52.0	52.0	52.0	48	32.9	4	9	248	0.00	30.112 
13:20	52.3	52.3	52.3	48	33.2	3	6	270	0.00	30.112 
13:25	52.8	52.8	52.8	49	34.2	3	6	248	0.00	30.112 
13:30	52.9	52.9	52.9	48	33.7	2	5	248	0.00	30.106 
13:35	52.9	52.9	52.9	50	34.8	2	6	248	0.00	30.106 
13:40	53.1	53.1	53.1	48	33.9	2	7	248	0.00	30.106 
13:45	53.1	53.1	53.1	50	35.0	2	4	248	0.00	30.093 
13:50	53.5	53.5	53.5	50	35.3	2	6	248	0.00	30.093 
13:55	54.2	54.2	54.2	49	35.5	3	6	270	0.00	30.093 
14:00	54.4	54.4	54.4	50	36.2	3	6	248	0.00	30.079 
14:05	54.5	54.5	54.5	49	35.7	2	6	90	0.00	30.079 
14:10	54.5	54.5	54.5	49	35.7	2	5	248	0.00	30.079 
14:15	54.5	54.5	54.5	50	36.2	2	6	225	0.00	30.072 
14:20	54.5	54.5	54.5	51	36.7	1	3	112	0.00	30.072 
14:25	54.4	54.4	54.4	50	36.2	1	3	112	0.00	30.072 
14:30	54.2	54.2	54.2	50	36.0	1	4	270	0.00	30.064 
14:35	54.2	54.2	54.2	50	36.0	1	2	248	0.00	30.064 
14:40	54.2	54.2	54.2	51	36.5	2	6	112	0.00	30.064 
14:45	54.4	54.4	54.4	52	37.1	1	2	112	0.00	30.058 
14:50	54.4	54.4	54.4	52	37.1	2	5	112	0.00	30.058 
14:55	54.5	54.5	54.5	54	38.2	2	6	225	0.00	30.058 
15:00	54.5	54.5	54.5	53	37.7	2	5	270	0.00	30.046 
15:05	55.0	55.0	55.0	53	38.2	2	5	68	0.00	30.046 
15:10	55.3	55.3	55.3	51	37.5	3	7	112	0.00	30.046 
15:15	55.0	55.0	55.0	52	37.7	3	7	90	0.00	30.043 
15:20	55.0	55.0	55.0	51	37.2	2	6	90	0.00	30.043 
15:25	55.1	55.1	55.1	53	38.3	2	5	90	0.00	30.043 
15:30	55.1	55.1	55.1	53	38.3	2	4	90	0.00	30.031 
15:35	55.1	55.1	55.1	51	37.3	3	6	90	0.00	30.031 
15:40	55.1	55.1	55.1	52	37.8	2	5	68	0.00	30.031 
15:45	55.0	55.0	55.0	53	38.2	2	4	90	0.00	30.025 
15:50	55.0	55.0	55.0	53	38.2	2	6	68	0.00	30.025 
15:55	54.8	54.8	54.8	53	38.0	3	7	112	0.00	30.025 
16:00	54.8	54.8	54.8	54	38.5	2	5	90	0.00	30.016 
16:05	54.7	54.7	54.7	54	38.4	3	7	90	0.00	30.016 
16:10	54.7	54.7	54.7	55	38.9	3	8	112	0.00	30.016 
16:15	54.5	54.5	54.5	57	39.6	2	6	22	0.00	30.015 
16:20	54.4	54.4	54.4	57	39.5	2	6	90	0.00	30.015 
16:25	54.4	54.4	54.4	58	39.9	2	9	292	0.00	30.015 
16:30	54.1	54.1	54.1	57	39.2	3	11	90	0.00	30.014 
16:35	54.1	54.1	54.1	58	39.7	2	4	68	0.00	30.014 
16:40	53.9	53.9	53.9	58	39.5	2	6	248	0.00	30.014 
16:45	53.8	53.8	53.8	59	39.8	2	6	248	0.00	30.010 
16:50	53.5	53.5	53.5	60	40.0	2	4	90	0.00	30.010 
16:55	53.3	53.3	53.3	61	40.2	1	2	22	0.00	30.010 
17:00	53.2	53.2	53.2	62	40.5	1	4	112	0.00	30.004 
17:05	53.1	53.1	53.1	63	40.8	1	3	112	0.00	30.004 
17:10	52.9	52.9	52.9	63	40.7	1	3	135	0.00	30.004 
17:15	52.8	52.8	52.8	64	41.0	1	3	112	0.00	30.005 
17:20	52.6	52.6	52.6	64	40.8	1	3	270	0.00	30.005 
17:25	52.5	52.5	52.5	65	41.1	1	5	270	0.00	30.005 
17:30	52.5	52.5	52.5	65	41.1	2	5	112	0.00	29.995 
17:35	52.5	52.5	52.5	65	41.1	1	3	135	0.00	29.995 
17:40	52.3	52.3	52.3	65	40.9	2	5	112	0.00	29.995 
17:45	52.3	52.3	52.3	65	40.9	2	5	90	0.00	29.985 
17:50	52.3	52.3	52.3	65	40.9	2	4	112	0.00	29.985 
17:55	52.2	52.2	52.2	64	40.4	2	4	112	0.00	29.985 
18:00	52.0	52.0	52.0	64	40.2	1	4	112	0.00	29.977 
18:05	51.9	51.9	51.9	65	40.5	2	5	112	0.00	29.977 
18:10	51.7	51.7	51.7	65	40.3	1	4	112	0.00	29.977 
18:15	51.6	51.6	51.6	65	40.2	1	4	112	0.00	29.969 
18:20	51.3	51.3	51.3	66	40.3	1	3	112	0.00	29.969 
18:25	51.1	51.1	51.1	66	40.1	1	2	112	0.00	29.969 
18:30	50.8	50.8	50.8	67	40.2	0	2	112	0.00	29.975 
18:35	50.7	50.7	50.7	67	40.1	1	3	112	0.00	29.975 
18:40	50.7	50.7	50.7	67	40.1	1	2	135	0.00	29.975 
18:45	50.5	50.5	50.5	67	40.0	0	1	135	0.00	29.972 
18:50	50.5	50.5	50.5	67	40.0	0	2	135	0.00	29.972 
18:55	50.5	50.5	50.5	68	40.3	0	2	135	0.00	29.972 
19:00	50.4	50.4	50.4	68	40.2	0	1	135	0.00	29.964 
19:05	50.1	50.1	50.1	69	40.3	0	1	135	0.00	29.964 
19:10	49.8	49.8	49.8	69	40.0	0	1	135	0.00	29.964 
19:15	49.5	49.5	49.5	70	40.1	1	2	135	0.00	29.954 
19:20	49.2	49.2	49.2	70	39.8	0	2	135	0.00	29.954 
19:25	49.1	49.1	49.1	71	40.1	0	2	112	0.00	29.954 
19:30	48.9	48.9	48.9	71	39.9	0	2	112	0.00	29.947 
19:35	48.9	48.9	48.9	71	39.9	1	2	112	0.00	29.947 
19:40	48.8	48.8	48.8	71	39.8	1	2	135	0.00	29.947 
19:45	48.8	48.8	48.8	71	39.8	1	3	135	0.00	29.942 
19:50	48.6	48.6	48.6	71	39.6	1	2	112	0.00	29.942 
19:55	48.6	48.6	48.6	70	39.3	1	3	112	0.00	29.942 
20:00	48.6	48.6	48.6	70	39.3	1	2	112	0.00	29.939 
20:05	48.5	48.5	48.5	70	39.2	1	3	112	0.00	29.939 
20:10	48.5	48.5	48.5	71	39.5	0	2	112	0.00	29.939 
20:15	48.3	48.3	48.3	71	39.3	1	2	112	0.00	29.929 
20:20	48.2	48.2	48.2	71	39.2	1	2	112	0.00	29.929 
20:25	48.2	48.2	48.2	70	38.9	1	2	112	0.00	29.929 
20:30	48.2	48.2	48.2	70	38.9	1	3	112	0.00	29.920 
20:35	48.2	48.2	48.2	70	38.9	0	2	112	0.00	29.920 
20:40	48.2	48.2	48.2	70	38.9	0	2	135	0.00	29.920 
20:45	48.0	48.0	48.0	71	39.1	1	3	135	0.00	29.911 
20:50	48.0	48.0	48.0	71	39.1	1	2	135	0.00	29.911 
20:55	47.9	47.9	47.9	71	39.0	0	2	135	0.00	29.911 
21:00	47.9	47.9	47.9	71	39.0	2	3	112	0.00	29.889 
21:05	48.0	48.0	48.0	70	38.7	1	2	112	0.00	29.889 
21:10	47.9	47.9	47.9	71	39.0	0	2	112	0.00	29.889 
21:15	47.7	47.7	47.7	71	38.8	1	2	112	0.00	29.884 
21:20	47.6	47.6	47.6	71	38.7	0	2	112	0.00	29.884 
21:25	47.4	47.4	47.4	72	38.8	1	2	112	0.00	29.884 
21:30	47.4	47.4	47.4	72	38.8	1	3	112	0.00	29.876 
21:35	47.4	47.4	47.4	72	38.8	0	2	135	0.00	29.876 
21:40	47.3	47.3	47.3	73	39.1	1	2	135	0.00	29.876 
21:45	47.1	47.1	47.1	73	38.9	1	4	112	0.00	29.858 
21:50	47.1	47.1	47.1	73	38.9	1	3	112	0.00	29.858 
21:55	47.3	47.3	47.3	72	38.7	2	5	90	0.00	29.858 
22:00	47.3	47.3	47.3	72	38.7	3	5	112	0.00	29.845 
22:05	47.3	47.3	47.3	72	38.7	2	5	112	0.00	29.845 
22:10	47.1	47.1	47.1	72	38.5	2	5	112	0.00	29.845 
22:15	47.1	47.1	47.1	72	38.5	2	4	112	0.00	29.832 
22:20	47.0	47.0	47.0	72	38.4	2	4	135	0.00	29.832 
22:25	47.0	47.0	47.0	72	38.4	2	4	112	0.00	29.832 
22:30	46.8	46.8	46.8	72	38.3	2	4	112	0.00	29.825 
22:35	47.0	47.0	47.0	71	38.1	2	7	90	0.00	29.825 
22:40	47.0	47.0	47.0	71	38.1	2	5	112	0.00	29.825 
22:45	47.0	47.0	47.0	72	38.4	1	3	90	0.00	29.819 
22:50	47.0	47.0	47.0	75	39.5	1	3	135	0.00	29.819 
22:55	46.5	46.5	46.5	77	39.7	1	3	135	0.01	29.819 
23:00	46.1	46.1	46.1	79	40.0	2	3	112	0.00	29.804 
23:05	45.8	45.8	45.8	80	40.0	2	4	112	0.00	29.804 
23:10	45.7	45.7	45.7	80	39.9	2	4	90	0.00	29.804 
23:15	45.5	45.5	45.5	80	39.7	2	3	135	0.00	29.791 
23:20	45.5	45.5	45.5	81	40.0	1	3	112	0.00	29.791 
23:25	45.5	45.5	45.5	80	39.7	1	3	112	0.00	29.791 
23:30	45.5	45.5	45.5	80	39.7	1	3	112	0.00	29.780 
23:35	45.5	45.5	45.5	80	39.7	1	2	112	0.00	29.780 
23:40	45.5	45.5	45.5	81	40.0	0	2	112	0.00	29.780 
23:45	45.5	45.5	45.5	81	40.0	0	1	112	0.00	29.779 
23:50	45.4	45.4	45.4	81	39.9	1	3	112	0.00	29.779 
23:55	45.4	45.4	45.4	81	39.9	1	2	112	0.00	29.779 

CoCoRaHS
IN-AL-39
A2 Web Hosting
Creative Commons License
GoDaddy
Look for:

loaded 2017-10-19 20:13:17 • last modified 2010-11-18 10:43:29
Privacy PolicyDisclaimer
• wx.awcolley.com is powered by PmWiki v.2002016 •
• all content (unless otherwise noted) © 2017 A W Colley